Aviation Digital Data Service (ADDS)

Output produced by METARs form (1553 UTC 23 November 2014)
found at http://www.aviationweather.gov/adds/metars/
 
KMIV 231454Z AUTO 24006KT 10SM CLR 08/M03 A3025 RMK AO2 SLP243 T00781028 50002
KMIV 231135Z 2312/2412 21006KT P6SM SCT100 
     FM232100 16005KT P6SM SCT040 
     FM240200 12005KT 4SM -RA BR OVC030 
     FM240500 14010KT 4SM -RA BR OVC010 
     FM240700 16015G26KT 4SM -RA BR OVC007 WS020/16050KT